KSTL/STL METAR and TAF weather

Enter ICAO airport designator
Station Type Date Time Source
KSTL METAR 2021/09/25 12:51 UTC NOAA

KSTL 251251Z 24005KT 10SM FEW004 FEW015 14/12 A3013 RMK AO2 SLP196 VIS NW 3 VCFG NW T01440122


Station Type Date Time Source
KSTL Decoded METAR 2021/09/25 12:51 UTC NOAA

LAMBERT-ST LOUIS INTERNATIONAL AIRPORT , MO, United States (KSTL) 38-45N 90-22W 171M
Sep 25, 2021 - 08:51 AM EDT / 2021.09.25 1251 UTC
Wind: from the WSW (240 degrees) at 6 MPH (5 KT):0
Visibility: 10 mile(s):0
Sky conditions: mostly clear
Temperature: 57.9 F (14.4 C)
Dew Point: 54.0 F (12.2 C)
Relative Humidity: 86%
Pressure (altimeter): 30.13 in. Hg (1020 hPa)
ob: KSTL 251251Z 24005KT 10SM FEW004 FEW015 14/12 A3013 RMK AO2 SLP196 VIS NW 3 VCFG NW T01440122
cycle: 13

Station Type Date Time Source
KSTL TAF 2021/09/25 12:30 UTC NOAA

TAF KSTL 251128Z 2512/2618 VRB04KT P6SM FEW010
FM251400 34005KT P6SM SKC
FM251700 29005KT P6SM SKC

Example: see airport list